Clifty, Kentucky
Current Conditions -  °F | °C
As of 7:55 AM on Monday 22 Dec 2014 (Local Time) from K2I0 Reporting Station
Overcast Overcast  
Wind Chill: 42°   Ceiling: 1900
Heat Index: 42°   Visibility: 10mi
Dew Point: 39°   Wind: 0mph
Humidity: 88%   Direction: NA
Pressure: 29.92"   Gusts: NA
Location:  37°N, 87.15°W
Report Text: K2I0 221355Z AUTO 00000KT 10SM OVC019 06/04 A2992 RMK AO2 T00580039
Loading
Personal Weather Stations






























Interactive Weather Map New forecast layout! Learn more

10-Day Weather Forecast

Advertisements
Track Severe Weather on mobile